Estación Meteorológica Peña el Pijo (Robertgarden) [ 06/25/18 14:03:30 CEST ]

Fecha Hora Presion(HPa) Temp (°C) Humedad % Rocio (°C) Viento ( m/s) Direccion Lluvia 1Hora(mm) Lluvia 24H(mm) LLuvia Total(mm)
2018-Jun-13 01:01:45 1010.200 11.3 72 6.4         266.25
2018-Jun-13 02:01:39 1009.700 10.9 75 6.6         266.25
2018-Jun-13 03:10:05 1009.700 9.5 78 5.8         266.25
2018-Jun-13 04:03:07 1009.600 8.9 81 5.8         266.25
2018-Jun-13 05:01:44 1009.400 9.0 81 5.9         266.25
2018-Jun-13 06:01:42 1009.300 8.9 82 6.0         266.25
2018-Jun-13 07:01:38 1009.600 9.3 83 6.5         266.25
2018-Jun-13 08:01:46 1009.600 11.6 85 9.1         266.25
2018-Jun-13 09:01:48 1009.700 17.3 76 13.0         266.25
2018-Jun-13 10:01:51 1009.400 21.1 54 11.4         266.25
2018-Jun-13 11:01:51 1009.400 23.9 42 10.2         266.25
2018-Jun-13 12:01:53 1009.500 25.3 38 9.9         266.25
2018-Jun-13 13:01:49 1009.100 27.3 36 10.8 0.8 W     266.25
2018-Jun-13 14:01:40 1009.100 24.4 39 9.5         266.25
2018-Jun-13 15:01:45 1008.700 25.1 38 9.7         266.25
2018-Jun-13 16:01:52 1008.300 26.9 35 10.1         266.25
2018-Jun-13 17:01:29 1008.100 27.2 32 9.0         266.25
2018-Jun-13 18:01:37 1008.100 25.5 32 7.5         266.25
2018-Jun-13 19:01:45 1008.000 24.4 33 7.0         266.25
2018-Jun-13 20:01:52 1008.300 23.2 33 5.9         266.25
2018-Jun-13 21:01:55 1008.600 19.6 36 4.0         266.25
2018-Jun-13 22:01:39 1008.600 16.4 45 4.4         266.25
2018-Jun-13 23:01:48 1009.400 13.3 55 4.4         266.25

Temperatura Máxima:27°    Temperatura Mínima:
Presión Máxima:1010.200 Hpa    Presión Mínima:1008.000 Hpa


Volver